Decoded Metar for KBFW (SILVER BAY in MN, USA) (IATA:BFW) | Meteo·Mobile Aviation Weather
aviador You're here:

KBFW Decoded Metar

SILVER BAY in MN, USA
Report Time2018-11-16 18:09:00
UTC Time2018-11-16 18:28:17
Flight Rules mvfr MVFR
Wind310° at 03 kt
W.Decomp.*RWY 25: 1.5 kt HW 2.6 kt RCW
W.Rank310° ranks 6
Current wind is below 310° avg. (5.6)
Visibility9999 m
Phenomena:N/A
Clouds:Overcast 024 Hf
Expected CloudBase > 2,000 ft AGL from Temp-Dew spread
Ceiling2,400 ft
Temp-2°C (ISA -15)
Dew Point-7°C (69% RH)
AAT-5.9°C
QNH1013 hPa
Density Alt-676 ft
Elevation1,086 ft
Report Wrong Elevation
Raw Report
KBFW 161809Z AUTO 31003KT 10SM OVC024 M02/M07 A2990 RMK AO2=

Extra information for KBFW:More info

Metar Taf Metar & Taf Last 4 Metars F.Rules Stats Wind Profile Meteogram Temp Stats Airport Information Weather charts Add Link Nearby VenuesMetar ALERT Operation Metar Decoded Social comments

AIRNAV info for KBFW